Time;durP1;ratioP1;P1;durP2;ratioP2;P2;SDS_P1;SDS_P2;PMS_P1;PMS_P2;Temp;Humidity;BMP_temperature;BMP_pressure;BME280_temperature;BME280_humidity;BME280_pressure;Samples;Min_cycle;Max_cycle;Signal;HPM_P1;HPM_P2
2021/09/13 00:01:17;;;;;;;4.40;4.00;;;;;;;19.52;63.29;96813.06;5094739;28;20182;-66
2021/09/13 00:03:42;;;;;;;4.53;4.20;;;;;;;19.44;63.57;96809.63;5093631;28;20185;-66
2021/09/13 00:06:08;;;;;;;5.00;4.27;;;;;;;19.39;63.96;96817.44;5094796;28;20189;-66
2021/09/13 00:08:34;;;;;;;4.23;3.80;;;;;;;19.38;63.97;96807.03;5093648;28;20648;-66
2021/09/13 00:10:59;;;;;;;6.83;4.20;;;;;;;19.34;64.23;96804.00;5095182;28;20196;-67
2021/09/13 00:13:25;;;;;;;6.00;3.73;;;;;;;19.47;63.43;96798.56;5098308;28;20272;-67
2021/09/13 00:15:51;;;;;;;7.03;4.10;;;;;;;19.43;63.64;96797.38;5095086;28;20209;-66
2021/09/13 00:18:17;;;;;;;5.70;4.20;;;;;;;19.44;63.42;96798.19;5090189;28;20193;-66
2021/09/13 00:20:43;;;;;;;7.30;3.90;;;;;;;19.41;63.50;96799.44;5093830;28;20455;-66
2021/09/13 00:23:08;;;;;;;4.33;3.93;;;;;;;19.39;63.55;96792.72;5095129;28;20190;-67
2021/09/13 00:25:34;;;;;;;4.17;3.87;;;;;;;19.34;63.54;96793.38;5093854;28;20212;-66
2021/09/13 00:27:59;;;;;;;4.30;3.90;;;;;;;19.42;63.46;96792.28;5094340;28;20185;-67
2021/09/13 00:30:25;;;;;;;5.00;4.13;;;;;;;19.41;63.49;96791.44;5095032;28;20671;-66
2021/09/13 00:32:50;;;;;;;4.80;4.30;;;;;;;19.29;63.55;96794.03;5095815;28;20185;-67
2021/09/13 00:35:16;;;;;;;4.20;3.90;;;;;;;19.22;64.08;96795.13;5094942;28;20201;-66
2021/09/13 00:37:42;;;;;;;3.90;3.60;;;;;;;19.27;63.58;96792.63;5093432;28;20246;-66
2021/09/13 00:40:08;;;;;;;9.03;4.20;;;;;;;19.17;64.27;96793.91;5093448;28;20227;-67
2021/09/13 00:42:34;;;;;;;4.80;3.60;;;;;;;19.28;63.90;96794.25;5094080;28;20186;-66
2021/09/13 00:45:01;;;;;;;4.60;4.20;;;;;;;19.27;63.90;96797.94;5093981;28;20448;-66
2021/09/13 00:47:27;;;;;;;7.30;4.33;;;;;;;19.14;64.43;96794.38;5092505;28;20185;-66
2021/09/13 00:49:52;;;;;;;4.30;4.00;;;;;;;19.11;64.54;96799.28;5091283;28;20427;-66
2021/09/13 00:52:18;;;;;;;10.30;4.57;;;;;;;19.01;65.24;96794.47;5094473;28;20180;-66
2021/09/13 00:54:45;;;;;;;4.50;4.10;;;;;;;19.03;65.30;96789.75;5093676;28;20339;-66
2021/09/13 00:57:12;;;;;;;4.10;3.70;;;;;;;19.05;65.31;96794.84;5093032;28;20178;-66
2021/09/13 00:59:37;;;;;;;4.10;3.60;;;;;;;19.15;64.76;96793.31;5094279;28;20973;-67
2021/09/13 01:02:03;;;;;;;4.10;3.70;;;;;;;19.23;64.46;96792.22;5092876;28;20434;-66
2021/09/13 01:04:28;;;;;;;3.70;3.17;;;;;;;19.32;64.45;96788.28;5093925;28;20236;-66
2021/09/13 01:06:54;;;;;;;6.33;3.77;;;;;;;19.38;64.24;96778.63;5093153;28;20224;-67
2021/09/13 01:09:20;;;;;;;4.37;3.30;;;;;;;19.40;64.02;96781.88;5094402;28;20178;-66
2021/09/13 01:11:45;;;;;;;4.43;3.43;;;;;;;19.43;63.94;96778.75;5094381;28;20189;-66
2021/09/13 01:14:11;;;;;;;4.53;3.50;;;;;;;19.45;63.79;96776.72;5093855;28;20202;-66
2021/09/13 01:16:37;;;;;;;4.10;3.80;;;;;;;19.47;63.89;96782.63;5093863;28;20193;-66
2021/09/13 01:19:02;;;;;;;5.57;3.93;;;;;;;19.46;63.87;96783.66;5087823;28;20219;-67
2021/09/13 01:21:28;;;;;;;4.00;3.60;;;;;;;19.45;63.96;96779.38;5092013;28;20551;-66
2021/09/13 01:23:54;;;;;;;3.90;3.50;;;;;;;19.47;63.98;96781.78;5092788;28;20197;-66
2021/09/13 01:26:19;;;;;;;4.47;3.30;;;;;;;19.46;63.66;96777.53;5093562;28;20208;-66
2021/09/13 01:28:45;;;;;;;4.33;3.57;;;;;;;19.43;63.67;96773.44;5092966;28;20641;-67
2021/09/13 01:31:11;;;;;;;5.03;3.77;;;;;;;19.39;63.86;96780.25;5091704;28;20186;-66
2021/09/13 01:33:37;;;;;;;3.73;3.43;;;;;;;19.34;64.02;96778.22;5090727;28;20538;-66
2021/09/13 01:36:03;;;;;;;6.83;3.37;;;;;;;19.35;64.34;96781.72;5091498;28;20193;-66
2021/09/13 01:38:31;;;;;;;6.27;4.20;;;;;;;19.32;64.18;96772.34;5090793;28;20201;-66
2021/09/13 01:40:56;;;;;;;5.13;3.90;;;;;;;19.31;63.91;96770.72;5091935;28;20213;-66
2021/09/13 01:43:22;;;;;;;6.20;4.37;;;;;;;19.27;63.95;96769.53;5092936;28;20416;-66
2021/09/13 01:45:48;;;;;;;6.40;3.80;;;;;;;19.23;63.96;96775.50;5092569;28;20258;-66
2021/09/13 01:48:13;;;;;;;4.87;4.47;;;;;;;19.16;64.44;96776.34;5079332;28;20558;-66
2021/09/13 01:50:40;;;;;;;5.37;4.90;;;;;;;19.14;64.41;96781.09;5092524;28;20190;-64
2021/09/13 01:53:06;;;;;;;5.20;4.70;;;;;;;19.09;64.40;96772.94;5091188;28;20182;-66
2021/09/13 01:55:31;;;;;;;4.90;4.50;;;;;;;19.06;64.49;96770.72;5089544;28;20934;-66
2021/09/13 01:57:57;;;;;;;4.93;4.50;;;;;;;19.04;64.69;96770.13;5090200;28;20508;-66
2021/09/13 02:00:23;;;;;;;7.03;4.80;;;;;;;19.03;64.79;96774.63;5090229;28;20214;-66
2021/09/13 02:02:48;;;;;;;5.00;4.50;;;;;;;18.99;64.79;96768.13;5091250;28;20193;-66
2021/09/13 02:05:14;;;;;;;9.97;4.90;;;;;;;18.91;65.24;96767.53;5091223;28;20264;-66
2021/09/13 02:07:39;;;;;;;7.10;5.40;;;;;;;18.92;65.21;96763.88;5092168;28;20185;-66
2021/09/13 02:10:05;;;;;;;7.40;4.43;;;;;;;18.91;65.33;96756.94;5094326;28;20635;-67
2021/09/13 02:12:31;;;;;;;5.77;5.17;;;;;;;18.86;65.22;96760.22;5093286;28;20270;-66
2021/09/13 02:14:57;;;;;;;5.17;4.67;;;;;;;18.82;65.38;96764.38;5095210;28;20439;-65
2021/09/13 02:17:22;;;;;;;8.50;5.27;;;;;;;18.82;65.47;96761.72;5095784;28;20193;-65
2021/09/13 02:19:48;;;;;;;8.30;4.90;;;;;;;18.81;65.41;96760.88;5092822;28;20198;-66
2021/09/13 02:22:14;;;;;;;9.13;5.47;;;;;;;18.77;65.68;96765.00;5100136;28;20182;-65
2021/09/13 02:24:40;;;;;;;6.17;5.30;;;;;;;18.70;66.03;96761.59;5097532;28;20297;-65
2021/09/13 02:27:06;;;;;;;7.07;6.10;;;;;;;18.69;66.03;96765.25;5097531;28;20428;-66
2021/09/13 02:29:31;;;;;;;7.60;6.37;;;;;;;18.65;66.20;96759.56;5096454;28;20189;-66
2021/09/13 02:31:57;;;;;;;8.27;6.30;;;;;;;18.72;65.90;96756.88;5096208;28;20193;-66
2021/09/13 02:34:22;;;;;;;6.23;5.63;;;;;;;18.70;65.66;96762.41;5096209;28;20272;-66
2021/09/13 02:36:48;;;;;;;9.07;5.90;;;;;;;18.68;65.75;96769.78;5096618;28;20193;-66
2021/09/13 02:39:14;;;;;;;6.23;5.57;;;;;;;18.68;65.64;96767.13;5087923;28;20200;-66
2021/09/13 02:41:40;;;;;;;10.33;5.73;;;;;;;18.69;65.64;96760.78;5097607;28;20186;-66
2021/09/13 02:44:06;;;;;;;5.60;5.10;;;;;;;18.69;65.92;96765.25;5097228;28;20212;-66
2021/09/13 02:46:31;;;;;;;8.17;6.23;;;;;;;18.68;65.73;96759.16;5095723;28;20432;-66
2021/09/13 02:48:57;;;;;;;6.60;5.60;;;;;;;18.67;65.96;96759.34;5090871;28;20181;-67
2021/09/13 02:51:23;;;;;;;14.57;6.00;;;;;;;18.66;65.89;96749.75;5095868;28;20277;-66
2021/09/13 02:53:48;;;;;;;8.27;5.97;;;;;;;18.64;66.00;96747.31;5096445;28;20632;-65
2021/09/13 02:56:14;;;;;;;8.13;5.77;;;;;;;18.64;66.11;96751.84;5096990;28;20699;-66
2021/09/13 02:58:39;;;;;;;6.27;5.50;;;;;;;18.53;66.47;96740.88;5097219;28;20751;-66
2021/09/13 03:01:05;;;;;;;11.10;6.70;;;;;;;18.51;66.57;96747.41;5096215;28;20243;-66
2021/09/13 03:03:30;;;;;;;7.17;6.47;;;;;;;18.48;66.72;96753.13;5096655;28;20178;-66
2021/09/13 03:05:56;;;;;;;7.67;5.47;;;;;;;18.48;66.79;96751.31;5095772;28;20216;-66
2021/09/13 03:08:22;;;;;;;6.47;5.87;;;;;;;18.50;66.60;96749.28;5096659;28;20203;-66
2021/09/13 03:10:47;;;;;;;6.60;5.33;;;;;;;18.50;66.30;96751.94;5096442;28;20213;-66
2021/09/13 03:13:13;;;;;;;8.63;5.97;;;;;;;18.48;66.28;96750.50;5094800;28;20174;-66
2021/09/13 03:15:38;;;;;;;6.03;4.87;;;;;;;18.46;66.42;96758.66;5096780;28;20628;-66
2021/09/13 03:18:04;;;;;;;5.37;4.83;;;;;;;18.44;66.66;96751.97;5090289;28;20190;-66
2021/09/13 03:20:30;;;;;;;5.27;4.87;;;;;;;18.39;66.90;96756.06;5096200;28;20213;-66
2021/09/13 03:22:55;;;;;;;6.33;4.73;;;;;;;18.40;66.85;96756.84;5095591;28;20538;-66
2021/09/13 03:25:23;;;;;;;5.13;4.63;;;;;;;18.33;67.08;96754.28;5094550;28;20243;-66
2021/09/13 03:27:48;;;;;;;5.40;4.90;;;;;;;17.98;68.27;96753.81;5094270;28;20192;-65
2021/09/13 03:30:14;;;;;;;5.70;5.00;;;;;;;17.79;69.00;96751.84;5097293;28;20412;-65
2021/09/13 03:32:39;;;;;;;5.23;4.73;;;;;;;17.83;68.55;96756.72;5092003;28;20285;-66
2021/09/13 03:35:06;;;;;;;7.17;5.57;;;;;;;17.59;69.38;96751.88;5089573;28;20201;-65
2021/09/13 03:37:31;;;;;;;6.17;5.40;;;;;;;17.49;69.66;96762.91;5087708;28;20262;-65
2021/09/13 03:39:57;;;;;;;5.83;5.33;;;;;;;17.34;70.52;96760.50;5094045;28;21240;-65
2021/09/13 03:42:23;;;;;;;7.13;6.23;;;;;;;17.54;69.61;96759.63;5094322;28;20329;-66
2021/09/13 03:44:48;;;;;;;11.97;6.20;;;;;;;17.55;69.75;96758.63;5095048;28;20567;-65
2021/09/13 03:47:14;;;;;;;7.90;5.00;;;;;;;17.75;68.86;96760.41;5086599;28;20197;-66
2021/09/13 03:49:39;;;;;;;7.77;5.37;;;;;;;17.81;68.46;96754.25;5095291;28;20207;-65
2021/09/13 03:52:08;;;;;;;4.80;4.40;;;;;;;17.83;68.35;96752.22;5093563;28;20189;-66
2021/09/13 03:54:35;;;;;;;5.60;5.10;;;;;;;17.88;68.04;96749.75;5095605;28;20201;-65
2021/09/13 03:57:01;;;;;;;6.00;5.10;;;;;;;17.85;67.96;96749.34;5095254;28;20470;-66
2021/09/13 03:59:26;;;;;;;8.33;5.13;;;;;;;17.86;68.00;96748.31;5093136;28;20677;-67
2021/09/13 04:01:52;;;;;;;11.87;5.57;;;;;;;17.91;67.75;96743.22;5094497;28;20661;-68
2021/09/13 04:04:22;;;;;;;7.93;4.97;;;;;;;17.92;67.72;96742.19;5095869;28;20297;-67
2021/09/13 04:06:51;;;;;;;6.70;4.97;;;;;;;17.96;67.62;96741.56;5093185;28;20192;-66
2021/09/13 04:11:58;;;;;;;5.50;4.67;;;;;;;17.99;67.24;96728.94;5095134;28;21091;-67
2021/09/13 04:14:29;;;;;;;6.50;5.07;;;;;;;17.95;67.34;96734.63;5096646;28;20448;-66
2021/09/13 04:16:56;;;;;;;6.60;4.70;;;;;;;17.91;67.39;96730.75;5096056;28;20464;-66
2021/09/13 04:19:22;;;;;;;7.83;5.30;;;;;;;17.75;68.25;96728.59;5094327;28;20557;-67
2021/09/13 04:21:49;;;;;;;8.20;5.53;;;;;;;17.73;68.36;96736.75;5098757;28;20882;-66
2021/09/13 04:24:15;;;;;;;6.97;5.20;;;;;;;17.74;68.14;96732.28;5095987;28;20492;-66
2021/09/13 04:26:41;;;;;;;7.07;4.70;;;;;;;17.79;67.86;96737.75;5095886;28;20809;-66
2021/09/13 04:29:07;;;;;;;5.57;4.97;;;;;;;17.82;67.63;96724.09;5094594;28;20543;-67
2021/09/13 04:31:32;;;;;;;6.50;4.80;;;;;;;17.79;67.62;96721.84;5095641;28;20192;-66
2021/09/13 04:33:58;;;;;;;12.10;5.07;;;;;;;17.80;67.44;96726.97;5075737;28;20207;-66
2021/09/13 04:36:24;;;;;;;6.80;5.37;;;;;;;17.77;67.77;96732.66;5093001;28;20182;-67
2021/09/13 04:38:49;;;;;;;13.50;5.27;;;;;;;17.79;67.58;96727.97;5093299;28;20178;-65
2021/09/13 04:41:15;;;;;;;6.00;5.40;;;;;;;17.79;67.58;96735.09;5095828;28;20622;-67
2021/09/13 04:43:41;;;;;;;12.20;5.37;;;;;;;17.72;67.64;96729.03;5095408;28;20548;-65
2021/09/13 04:46:06;;;;;;;5.67;5.00;;;;;;;17.72;67.67;96734.31;5093812;28;20420;-67
2021/09/13 04:48:32;;;;;;;7.50;5.80;;;;;;;17.64;67.95;96732.72;5093548;28;20188;-67
2021/09/13 04:50:58;;;;;;;6.63;5.70;;;;;;;17.69;68.06;96735.56;5095556;28;20189;-66
2021/09/13 04:53:23;;;;;;;5.73;5.13;;;;;;;17.77;67.80;96735.31;5095022;28;20185;-67
2021/09/13 04:55:49;;;;;;;7.60;5.90;;;;;;;17.81;67.50;96735.72;5094926;28;20201;-66
2021/09/13 04:58:15;;;;;;;6.80;6.10;;;;;;;17.87;67.33;96740.19;5093805;28;20227;-66
2021/09/13 05:00:40;;;;;;;6.53;5.70;;;;;;;17.87;67.24;96729.59;5095771;28;20194;-66
2021/09/13 05:03:06;;;;;;;8.10;6.07;;;;;;;17.89;67.29;96729.34;5095274;28;20192;-66
2021/09/13 05:05:32;;;;;;;18.53;5.70;;;;;;;17.88;67.14;96733.88;5094011;28;20273;-66
2021/09/13 05:07:58;;;;;;;8.17;5.50;;;;;;;17.84;67.10;96737.13;5091199;28;20510;-67
2021/09/13 05:10:23;;;;;;;7.57;5.17;;;;;;;17.73;67.60;96736.75;5096069;28;20318;-66
2021/09/13 05:12:49;;;;;;;8.07;6.53;;;;;;;17.61;67.77;96733.97;5095285;28;20184;-65
2021/09/13 05:15:15;;;;;;;5.80;5.20;;;;;;;17.63;67.64;96739.03;5095293;28;20193;-65
2021/09/13 05:17:40;;;;;;;7.13;5.60;;;;;;;17.66;67.66;96736.78;5093616;28;20556;-67
2021/09/13 05:20:07;;;;;;;6.17;5.30;;;;;;;17.71;67.49;96743.28;5094750;28;20198;-66
2021/09/13 05:22:32;;;;;;;5.97;4.93;;;;;;;17.75;67.29;96739.22;5095520;28;20325;-66
2021/09/13 05:24:58;;;;;;;6.30;5.53;;;;;;;17.63;67.65;96745.16;5094186;28;20432;-66
2021/09/13 05:27:23;;;;;;;7.00;5.50;;;;;;;17.64;67.69;96748.59;5095352;28;20276;-68
2021/09/13 05:29:49;;;;;;;7.30;6.20;;;;;;;17.58;67.79;96739.66;5095604;28;20672;-64
2021/09/13 05:32:15;;;;;;;6.27;5.13;;;;;;;17.70;67.74;96741.66;5095647;28;20213;-66
2021/09/13 05:34:41;;;;;;;6.50;4.90;;;;;;;17.76;67.42;96746.94;5106517;28;20288;-66
2021/09/13 05:37:06;;;;;;;7.93;5.23;;;;;;;17.86;67.03;96743.84;5100223;28;20205;-66
2021/09/13 05:39:32;;;;;;;6.47;5.30;;;;;;;17.92;66.87;96753.59;5103110;28;20838;-66
2021/09/13 05:41:57;;;;;;;6.20;5.37;;;;;;;18.02;66.78;96755.03;5105277;28;20247;-66
2021/09/13 05:44:23;;;;;;;9.10;5.63;;;;;;;18.07;66.46;96748.09;5103800;28;20186;-67
2021/09/13 05:46:50;;;;;;;10.50;6.10;;;;;;;18.14;66.23;96750.69;5096897;28;20182;-66
2021/09/13 05:49:17;;;;;;;15.20;6.37;;;;;;;18.17;66.11;96752.91;5094226;28;20185;-66
2021/09/13 05:51:45;;;;;;;15.33;6.57;;;;;;;18.23;66.04;96757.38;5097248;28;20430;-66
2021/09/13 05:54:14;;;;;;;14.13;6.33;;;;;;;18.31;65.77;96763.44;5096006;28;20500;-67
2021/09/13 05:56:41;;;;;;;28.07;9.27;;;;;;;18.37;65.62;96757.31;5097238;28;20460;-65
2021/09/13 05:59:07;;;;;;;28.60;12.40;;;;;;;18.41;65.42;96758.50;5096443;28;20423;-66
2021/09/13 06:01:33;;;;;;;21.60;9.03;;;;;;;18.44;65.21;96762.56;5097481;28;20891;-66
2021/09/13 06:03:58;;;;;;;15.07;7.00;;;;;;;18.40;65.37;96765.66;5096304;28;20439;-66
2021/09/13 06:06:24;;;;;;;14.20;6.73;;;;;;;18.44;65.40;96762.56;5097532;28;20177;-66
2021/09/13 06:08:50;;;;;;;17.83;6.30;;;;;;;18.48;65.38;96759.28;5097338;28;20245;-67
2021/09/13 06:11:15;;;;;;;19.93;7.30;;;;;;;18.55;65.71;96760.03;5098708;28;20177;-66
2021/09/13 06:13:41;;;;;;;22.40;6.90;;;;;;;18.96;65.43;96760.63;5097239;28;20178;-66
2021/09/13 06:16:08;;;;;;;11.50;7.00;;;;;;;19.28;64.13;96763.19;5094372;28;20193;-66
2021/09/13 06:18:37;;;;;;;14.33;6.23;;;;;;;19.51;63.45;96755.63;5097321;28;20185;-66
2021/09/13 06:21:02;;;;;;;10.67;6.50;;;;;;;19.90;62.66;96765.00;5077696;28;20459;-66
2021/09/13 06:23:28;;;;;;;17.20;7.17;;;;;;;20.42;61.46;96756.56;5097241;28;20510;-65
2021/09/13 06:25:53;;;;;;;19.47;6.47;;;;;;;21.23;58.60;96766.00;5096733;28;20202;-66
2021/09/13 06:28:19;;;;;;;16.80;6.13;;;;;;;21.38;57.35;96764.75;5098167;28;20182;-66
2021/09/13 06:30:46;;;;;;;22.50;7.00;;;;;;;21.14;57.23;96770.06;5100787;28;20636;-66
2021/09/13 06:33:12;;;;;;;20.60;5.83;;;;;;;21.15;57.48;96772.50;5095987;28;20235;-67
2021/09/13 06:35:37;;;;;;;9.07;5.37;;;;;;;21.62;57.18;96766.38;5096570;28;20439;-67
2021/09/13 06:38:03;;;;;;;16.23;5.23;;;;;;;21.86;55.17;96763.66;5095415;28;20212;-67
2021/09/13 06:40:29;;;;;;;10.67;5.10;;;;;;;21.88;54.47;96766.91;5096421;28;20636;-66
2021/09/13 06:42:54;;;;;;;6.50;4.93;;;;;;;21.82;54.95;96764.38;5095995;28;20174;-67
2021/09/13 06:45:22;;;;;;;8.27;5.07;;;;;;;21.85;54.82;96754.03;5095973;28;20438;-66
2021/09/13 06:47:49;;;;;;;9.27;4.60;;;;;;;21.88;54.65;96764.25;5096253;28;20188;-67
2021/09/13 06:50:18;;;;;;;6.33;4.70;;;;;;;21.92;54.91;96762.72;5094822;28;20412;-67
2021/09/13 06:52:45;;;;;;;6.07;4.63;;;;;;;22.01;54.42;96770.34;5096278;28;20515;-65
2021/09/13 06:55:11;;;;;;;5.80;4.77;;;;;;;22.07;53.90;96772.91;5096403;28;20428;-67
2021/09/13 06:57:38;;;;;;;4.40;3.80;;;;;;;22.15;53.72;96774.38;5093695;28;20412;-67
2021/09/13 07:00:05;;;;;;;8.63;4.33;;;;;;;22.31;53.43;96779.97;5082135;28;20476;-66
2021/09/13 07:02:31;;;;;;;8.47;4.53;;;;;;;22.34;53.07;96777.69;5086566;28;20881;-66
2021/09/13 07:04:57;;;;;;;7.77;4.57;;;;;;;22.44;52.91;96766.38;5097058;28;20479;-66
2021/09/13 07:07:23;;;;;;;6.43;4.23;;;;;;;22.44;52.95;96769.06;5095616;28;20431;-66
2021/09/13 07:09:48;;;;;;;14.60;3.97;;;;;;;22.47;52.35;96776.59;5103305;28;20178;-66
2021/09/13 07:12:14;;;;;;;7.60;4.10;;;;;;;22.58;52.10;96774.94;5094685;28;20278;-66
2021/09/13 07:14:40;;;;;;;5.00;3.70;;;;;;;22.72;51.67;96780.75;5096162;28;20247;-66
2021/09/13 07:17:05;;;;;;;9.27;3.63;;;;;;;22.79;50.99;96773.44;5094528;28;20174;-66
2021/09/13 07:19:31;;;;;;;10.13;4.20;;;;;;;22.61;51.63;96779.78;5095409;28;20194;-66
2021/09/13 07:21:56;;;;;;;8.33;4.50;;;;;;;22.83;51.52;96776.41;5097154;28;20211;-67
2021/09/13 07:24:22;;;;;;;10.17;5.07;;;;;;;22.77;51.79;96778.19;5095966;28;20189;-66
2021/09/13 07:26:48;;;;;;;5.87;3.37;;;;;;;22.48;51.17;96774.75;5098096;28;20178;-66
2021/09/13 07:29:14;;;;;;;5.50;3.07;;;;;;;22.69;51.43;96781.25;5087460;28;20768;-66
2021/09/13 07:31:39;;;;;;;5.97;3.40;;;;;;;22.89;50.17;96782.66;5094567;28;20412;-65
2021/09/13 07:34:05;;;;;;;4.30;3.70;;;;;;;23.19;49.05;96773.53;5094569;28;20428;-67
2021/09/13 07:36:32;;;;;;;6.17;3.27;;;;;;;23.38;48.38;96782.91;5094412;28;20190;-66
2021/09/13 07:38:58;;;;;;;6.00;2.93;;;;;;;23.32;48.81;96794.56;5095066;28;20231;-65
2021/09/13 07:41:24;;;;;;;6.60;3.50;;;;;;;23.35;48.72;96788.75;5098281;28;20498;-66
2021/09/13 07:43:49;;;;;;;4.40;3.53;;;;;;;23.46;48.09;96795.84;5096880;28;20424;-65
2021/09/13 07:46:15;;;;;;;2.90;2.70;;;;;;;23.64;48.21;96796.66;5094649;28;20174;-66
2021/09/13 07:48:40;;;;;;;7.40;4.03;;;;;;;23.52;48.17;96798.63;5098031;28;20180;-66
2021/09/13 07:51:06;;;;;;;4.33;3.60;;;;;;;23.57;48.55;96801.34;5096853;28;20174;-66
2021/09/13 07:53:32;;;;;;;6.43;4.00;;;;;;;23.81;48.27;96803.84;5095251;28;20182;-66
2021/09/13 07:55:57;;;;;;;5.00;4.00;;;;;;;23.35;49.08;96804.78;5095003;28;20268;-68
2021/09/13 07:58:23;;;;;;;8.57;4.30;;;;;;;23.34;49.12;96803.16;5094814;28;20276;-66
2021/09/13 08:00:48;;;;;;;5.47;3.87;;;;;;;23.43;49.39;96811.59;5095157;28;20258;-65
2021/09/13 08:03:14;;;;;;;5.20;3.90;;;;;;;23.70;48.29;96805.53;5094479;28;20188;-66
2021/09/13 08:05:39;;;;;;;5.53;3.97;;;;;;;23.86;47.88;96814.59;5095608;28;20201;-66
2021/09/13 08:08:05;;;;;;;4.90;3.50;;;;;;;23.98;47.33;96807.28;5095044;28;20212;-66
2021/09/13 08:10:31;;;;;;;6.20;3.37;;;;;;;24.15;47.03;96811.78;5096256;28;20173;-65
2021/09/13 08:12:56;;;;;;;6.37;3.10;;;;;;;24.43;46.40;96807.28;5095917;28;20211;-67
2021/09/13 08:15:23;;;;;;;4.77;3.77;;;;;;;24.38;47.04;96816.84;5093986;28;20198;-65
2021/09/13 08:17:49;;;;;;;4.17;3.40;;;;;;;24.64;46.09;96814.44;5093959;28;20275;-64
2021/09/13 08:20:15;;;;;;;5.20;4.53;;;;;;;24.80;45.50;96817.31;5094057;28;20451;-65
2021/09/13 08:22:40;;;;;;;7.23;3.37;;;;;;;24.58;45.77;96820.00;5096667;28;20431;-66
2021/09/13 08:25:07;;;;;;;3.70;3.40;;;;;;;24.69;45.15;96827.94;5095650;28;20359;-66
2021/09/13 08:27:32;;;;;;;4.13;3.40;;;;;;;24.48;45.86;96826.06;5095820;28;20178;-66
2021/09/13 08:29:58;;;;;;;5.23;3.13;;;;;;;24.57;45.06;96819.22;5095113;28;20205;-65
2021/09/13 08:32:23;;;;;;;6.60;3.87;;;;;;;24.97;44.45;96827.91;5098453;28;20180;-65
2021/09/13 08:34:51;;;;;;;7.43;5.50;;;;;;;24.93;44.82;96822.28;5096029;28;20201;-67
2021/09/13 08:37:17;;;;;;;7.73;4.10;;;;;;;25.22;44.05;96824.63;5095215;28;20196;-64
2021/09/13 08:39:42;;;;;;;4.73;3.50;;;;;;;25.25;43.83;96823.34;5095721;28;20444;-65
2021/09/13 08:42:09;;;;;;;3.67;3.10;;;;;;;25.24;42.53;96827.06;5095421;28;20501;-65
2021/09/13 08:44:35;;;;;;;4.53;3.23;;;;;;;25.40;43.71;96830.66;5095298;28;20475;-65
2021/09/13 08:47:11;;;;;;;4.37;4.07;;;;;;;25.46;43.98;96829.66;5092475;28;20190;-65
2021/09/13 08:49:39;;;;;;;4.90;3.77;;;;;;;25.51;43.82;96831.59;5096111;28;20181;-65
2021/09/13 08:52:05;;;;;;;9.03;4.00;;;;;;;25.35;43.06;96834.13;5095250;28;20428;-65
2021/09/13 08:54:35;;;;;;;4.60;3.77;;;;;;;25.76;42.86;96838.97;5095293;28;20980;-64
2021/09/13 08:57:05;;;;;;;8.87;3.60;;;;;;;25.45;43.67;96833.44;5095263;28;20451;-66
2021/09/13 08:59:35;;;;;;;7.10;3.90;;;;;;;25.96;43.07;96829.44;5094513;28;20471;-65
2021/09/13 09:02:02;;;;;;;4.67;4.10;;;;;;;25.98;42.20;96836.16;5094062;28;20859;-65
2021/09/13 09:04:28;;;;;;;5.50;3.70;;;;;;;26.05;42.82;96841.28;5094604;28;20879;-64
2021/09/13 09:06:54;;;;;;;4.90;4.23;;;;;;;26.43;42.01;96833.13;5096076;28;20423;-66
2021/09/13 09:09:21;;;;;;;8.10;3.83;;;;;;;26.39;42.59;96834.75;5097275;28;20435;-65
2021/09/13 09:12:02;;;;;;;6.30;3.90;;;;;;;26.31;42.36;96836.84;5096556;28;20187;-64
2021/09/13 09:14:34;;;;;;;9.23;4.20;;;;;;;25.84;43.53;96835.00;5101662;28;20945;-66
2021/09/13 09:17:03;;;;;;;6.03;3.63;;;;;;;26.11;43.38;96834.91;5097195;28;20424;-66
2021/09/13 09:19:28;;;;;;;5.10;4.10;;;;;;;26.19;43.69;96836.28;5096247;28;20495;-64
2021/09/13 09:21:54;;;;;;;5.40;4.40;;;;;;;26.16;42.97;96828.72;5096680;28;20674;-65
2021/09/13 09:24:20;;;;;;;7.63;4.50;;;;;;;26.42;42.51;96823.47;5095919;28;20216;-67
2021/09/13 09:27:03;;;;;;;8.83;4.47;;;;;;;26.92;42.12;96826.56;5098361;28;20424;-66
2021/09/13 09:29:30;;;;;;;5.97;4.70;;;;;;;26.89;41.89;96819.03;5098315;28;20170;-66
2021/09/13 09:31:58;;;;;;;6.90;4.53;;;;;;;26.66;42.12;96810.38;5100727;28;20439;-65
2021/09/13 09:34:26;;;;;;;8.37;4.43;;;;;;;26.89;42.00;96810.97;5099776;28;20783;-66
2021/09/13 09:36:58;;;;;;;6.13;4.83;;;;;;;27.02;42.13;96812.31;5098168;28;20428;-67
2021/09/13 09:39:28;;;;;;;7.43;4.70;;;;;;;26.76;42.35;96818.44;5099773;28;20541;-65
2021/09/13 09:41:56;;;;;;;7.60;4.80;;;;;;;26.75;42.39;96816.81;5098336;28;20863;-65
2021/09/13 09:44:22;;;;;;;6.10;4.40;;;;;;;26.82;42.33;96822.78;5098940;28;20447;-64
2021/09/13 09:46:48;;;;;;;6.13;4.53;;;;;;;27.21;42.06;96816.06;5096109;28;20939;-65
2021/09/13 09:49:18;;;;;;;6.10;5.50;;;;;;;27.11;42.30;96824.16;5089791;28;20518;-66
2021/09/13 09:51:49;;;;;;;4.83;4.40;;;;;;;27.39;41.59;96819.31;5098253;28;20220;-66
2021/09/13 09:54:23;;;;;;;12.13;5.10;;;;;;;27.35;41.43;96819.00;5090721;28;20443;-64
2021/09/13 09:57:09;;;;;;;7.40;5.07;;;;;;;27.25;42.44;96821.72;5098585;28;20472;-65
2021/09/13 09:59:41;;;;;;;6.10;5.43;;;;;;;27.27;42.21;96816.88;5080286;28;20459;-65
2021/09/13 10:02:18;;;;;;;8.60;4.80;;;;;;;27.40;41.67;96820.91;5098658;28;20430;-65
2021/09/13 10:04:57;;;;;;;5.17;4.67;;;;;;;27.82;41.06;96805.53;5098414;28;20447;-64
2021/09/13 10:07:23;;;;;;;4.63;4.30;;;;;;;27.92;40.83;96810.06;5091342;28;20419;-65
2021/09/13 10:09:48;;;;;;;5.10;4.60;;;;;;;27.65;41.18;96814.72;5099457;28;20422;-65
2021/09/13 10:12:14;;;;;;;5.43;4.93;;;;;;;27.80;41.00;96807.69;5100019;28;20197;-65
2021/09/13 10:14:40;;;;;;;6.83;4.87;;;;;;;27.59;41.68;96807.75;5098151;28;20202;-64
2021/09/13 10:17:06;;;;;;;6.17;4.70;;;;;;;28.12;40.56;96811.91;5098475;28;20217;-64
2021/09/13 10:19:32;;;;;;;7.23;5.00;;;;;;;28.18;39.92;96802.72;5098283;28;20659;-65
2021/09/13 10:21:58;;;;;;;8.63;4.77;;;;;;;28.41;39.64;96803.97;5097331;28;20428;-66
2021/09/13 10:24:27;;;;;;;5.60;4.50;;;;;;;28.03;41.08;96795.50;5097507;28;20444;-65
2021/09/13 10:26:55;;;;;;;5.13;4.40;;;;;;;27.56;41.94;96797.50;5095674;28;20557;-65
2021/09/13 10:29:23;;;;;;;7.87;4.60;;;;;;;27.43;42.25;96805.03;5095251;28;20825;-65
2021/09/13 10:31:48;;;;;;;9.50;4.70;;;;;;;27.55;41.97;96790.53;5076864;28;20432;-64
2021/09/13 10:34:19;;;;;;;6.70;4.80;;;;;;;27.36;42.09;96793.72;5097207;28;21007;-65
2021/09/13 10:37:03;;;;;;;5.23;4.70;;;;;;;27.65;41.79;96793.19;5095970;28;20239;-64
2021/09/13 10:39:55;;;;;;;7.53;4.67;;;;;;;28.32;40.00;96789.44;5108580;28;20458;-65
2021/09/13 10:42:39;;;;;;;6.03;5.50;;;;;;;28.27;39.57;96782.22;5088012;28;20515;-64
2021/09/13 10:45:05;;;;;;;9.73;4.50;;;;;;;28.10;40.70;96779.06;5094153;28;20429;-65
2021/09/13 10:47:31;;;;;;;5.90;4.60;;;;;;;28.26;40.52;96783.28;5097236;28;20450;-65
2021/09/13 10:50:18;;;;;;;7.33;4.40;;;;;;;28.92;38.60;96777.78;5097558;28;20645;-65
2021/09/13 10:52:45;;;;;;;4.70;4.10;;;;;;;28.14;40.29;96772.03;5099653;28;20181;-65
2021/09/13 10:55:16;;;;;;;5.03;4.53;;;;;;;28.87;38.77;96770.53;5098835;28;20440;-64
2021/09/13 10:57:51;;;;;;;4.50;3.93;;;;;;;29.37;37.41;96772.28;5097749;28;20512;-65
2021/09/13 11:00:39;;;;;;;4.47;4.07;;;;;;;29.41;37.26;96767.94;5098384;28;20451;-63
2021/09/13 11:06:07;;;;;;;6.40;3.97;;;;;;;29.88;36.28;96760.94;5099978;28;20789;-64
2021/09/13 11:08:52;;;;;;;3.97;3.67;;;;;;;29.52;37.73;96763.25;5099072;28;20930;-64
2021/09/13 11:11:31;;;;;;;9.03;4.83;;;;;;;29.24;37.69;96768.34;5091532;28;20411;-66
2021/09/13 11:14:11;;;;;;;4.07;3.60;;;;;;;29.36;37.26;96757.22;5098734;28;20419;-66
2021/09/13 11:16:57;;;;;;;5.07;4.10;;;;;;;29.78;37.60;96755.66;5098033;28;20526;-65
2021/09/13 11:19:26;;;;;;;4.87;3.60;;;;;;;29.62;37.32;96755.03;5101605;28;20438;-64
2021/09/13 11:21:56;;;;;;;6.13;3.60;;;;;;;29.42;37.13;96758.75;5099557;28;20462;-64
2021/09/13 11:24:28;;;;;;;6.10;4.20;;;;;;;29.78;36.00;96750.25;5101200;28;20467;-64
2021/09/13 11:26:54;;;;;;;5.73;3.67;;;;;;;29.57;36.52;96755.06;5082060;28;20925;-65
2021/09/13 11:29:33;;;;;;;4.77;3.80;;;;;;;29.79;37.11;96746.47;5104658;28;20456;-65
2021/09/13 11:32:00;;;;;;;5.03;4.30;;;;;;;29.89;36.87;96743.63;5095652;28;20186;-64
2021/09/13 11:34:34;;;;;;;4.80;3.87;;;;;;;29.86;36.42;96741.53;5096835;28;20455;-65
2021/09/13 11:37:29;;;;;;;3.50;3.20;;;;;;;30.72;34.50;96734.44;5095313;28;20435;-66